sensor_id;sensor_type;location;lat;lon;timestamp;pressure;altitude;pressure_sealevel;temperature;humidity
83559;BME280;73527;47.882;7.718;2024-01-15T00:02:17;97729.00;;;2.34;65.41
83559;BME280;73527;47.882;7.718;2024-01-15T00:04:42;97742.69;;;1.86;68.44
83559;BME280;73527;47.882;7.718;2024-01-15T00:07:08;97745.91;;;1.98;68.30
83559;BME280;73527;47.882;7.718;2024-01-15T00:09:34;97754.03;;;2.04;67.81
83559;BME280;73527;47.882;7.718;2024-01-15T00:12:00;97748.94;;;2.54;66.51
83559;BME280;73527;47.882;7.718;2024-01-15T00:14:26;97738.47;;;2.71;65.51
83559;BME280;73527;47.882;7.718;2024-01-15T00:16:52;97731.94;;;2.57;65.58
83559;BME280;73527;47.882;7.718;2024-01-15T00:19:20;97727.06;;;2.70;64.98
83559;BME280;73527;47.882;7.718;2024-01-15T00:21:46;97733.63;;;1.89;67.75
83559;BME280;73527;47.882;7.718;2024-01-15T00:24:12;97711.34;;;1.74;68.80
83559;BME280;73527;47.882;7.718;2024-01-15T00:26:37;97728.69;;;1.94;67.90
83559;BME280;73527;47.882;7.718;2024-01-15T00:29:03;97713.09;;;1.83;68.20
83559;BME280;73527;47.882;7.718;2024-01-15T00:31:28;97710.78;;;1.80;68.61
83559;BME280;73527;47.882;7.718;2024-01-15T00:33:55;97717.94;;;1.70;69.29
83559;BME280;73527;47.882;7.718;2024-01-15T00:36:20;97691.31;;;1.45;69.89
83559;BME280;73527;47.882;7.718;2024-01-15T00:38:46;97704.06;;;1.32;71.24
83559;BME280;73527;47.882;7.718;2024-01-15T00:41:13;97701.97;;;1.53;70.69
83559;BME280;73527;47.882;7.718;2024-01-15T00:43:38;97695.84;;;1.35;71.48
83559;BME280;73527;47.882;7.718;2024-01-15T00:46:04;97689.44;;;1.38;71.69
83559;BME280;73527;47.882;7.718;2024-01-15T00:48:29;97699.09;;;1.29;71.55
83559;BME280;73527;47.882;7.718;2024-01-15T00:50:54;97687.50;;;1.40;71.23
83559;BME280;73527;47.882;7.718;2024-01-15T00:53:20;97695.25;;;1.41;71.91
83559;BME280;73527;47.882;7.718;2024-01-15T00:55:50;97680.72;;;1.37;72.22
83559;BME280;73527;47.882;7.718;2024-01-15T00:58:15;97684.69;;;1.24;72.77
83559;BME280;73527;47.882;7.718;2024-01-15T01:00:41;97681.34;;;1.22;72.85
83559;BME280;73527;47.882;7.718;2024-01-15T01:03:06;97683.19;;;1.39;72.18
83559;BME280;73527;47.882;7.718;2024-01-15T01:05:33;97679.41;;;1.24;72.55
83559;BME280;73527;47.882;7.718;2024-01-15T01:07:59;97670.44;;;1.34;72.75
83559;BME280;73527;47.882;7.718;2024-01-15T01:10:24;97674.22;;;1.49;72.02
83559;BME280;73527;47.882;7.718;2024-01-15T01:12:50;97675.88;;;1.50;72.20
83559;BME280;73527;47.882;7.718;2024-01-15T01:15:16;97670.44;;;1.70;71.51
83559;BME280;73527;47.882;7.718;2024-01-15T01:17:41;97660.53;;;1.54;72.66
83559;BME280;73527;47.882;7.718;2024-01-15T01:20:07;97665.28;;;1.68;72.14
83559;BME280;73527;47.882;7.718;2024-01-15T01:22:34;97649.13;;;1.89;70.74
83559;BME280;73527;47.882;7.718;2024-01-15T01:24:59;97656.09;;;1.98;70.39
83559;BME280;73527;47.882;7.718;2024-01-15T01:27:25;97655.59;;;1.94;70.94
83559;BME280;73527;47.882;7.718;2024-01-15T01:29:50;97659.00;;;2.13;70.15
83559;BME280;73527;47.882;7.718;2024-01-15T01:32:15;97661.44;;;2.06;70.42
83559;BME280;73527;47.882;7.718;2024-01-15T01:34:41;97665.47;;;1.92;70.98
83559;BME280;73527;47.882;7.718;2024-01-15T01:37:07;97666.53;;;1.99;70.80
83559;BME280;73527;47.882;7.718;2024-01-15T01:39:33;97669.94;;;1.92;70.84
83559;BME280;73527;47.882;7.718;2024-01-15T01:41:58;97661.44;;;2.06;70.21
83559;BME280;73527;47.882;7.718;2024-01-15T01:44:23;97665.22;;;2.03;70.48
83559;BME280;73527;47.882;7.718;2024-01-15T01:46:49;97661.03;;;1.49;72.49
83559;BME280;73527;47.882;7.718;2024-01-15T01:49:14;97665.09;;;1.87;70.97
83559;BME280;73527;47.882;7.718;2024-01-15T01:51:39;97656.38;;;2.13;69.88
83559;BME280;73527;47.882;7.718;2024-01-15T01:54:05;97666.38;;;1.83;70.01
83559;BME280;73527;47.882;7.718;2024-01-15T01:56:33;97658.22;;;2.20;69.76
83559;BME280;73527;47.882;7.718;2024-01-15T01:58:59;97662.13;;;2.08;70.04
83559;BME280;73527;47.882;7.718;2024-01-15T02:01:25;97646.72;;;2.03;69.93
83559;BME280;73527;47.882;7.718;2024-01-15T02:03:51;97663.88;;;2.25;70.13
83559;BME280;73527;47.882;7.718;2024-01-15T02:06:18;97664.53;;;2.01;70.23
83559;BME280;73527;47.882;7.718;2024-01-15T02:08:43;97670.16;;;1.81;71.19
83559;BME280;73527;47.882;7.718;2024-01-15T02:11:09;97673.19;;;1.86;70.43
83559;BME280;73527;47.882;7.718;2024-01-15T02:13:34;97667.28;;;2.18;67.80
83559;BME280;73527;47.882;7.718;2024-01-15T02:15:59;97656.34;;;2.38;66.80
83559;BME280;73527;47.882;7.718;2024-01-15T02:18:25;97654.94;;;2.52;67.12
83559;BME280;73527;47.882;7.718;2024-01-15T02:20:50;97661.13;;;2.35;67.28
83559;BME280;73527;47.882;7.718;2024-01-15T02:23:15;97647.94;;;2.43;67.35
83559;BME280;73527;47.882;7.718;2024-01-15T02:25:42;97652.50;;;2.67;66.79
83559;BME280;73527;47.882;7.718;2024-01-15T02:28:10;97652.41;;;2.17;67.82
83559;BME280;73527;47.882;7.718;2024-01-15T02:30:37;97649.06;;;2.32;67.47
83559;BME280;73527;47.882;7.718;2024-01-15T02:33:04;97655.94;;;2.25;67.69
83559;BME280;73527;47.882;7.718;2024-01-15T02:35:29;97647.41;;;2.73;65.77
83559;BME280;73527;47.882;7.718;2024-01-15T02:37:54;97650.50;;;2.69;66.41
83559;BME280;73527;47.882;7.718;2024-01-15T02:40:20;97649.97;;;2.99;65.69
83559;BME280;73527;47.882;7.718;2024-01-15T02:42:45;97657.84;;;2.75;65.89
83559;BME280;73527;47.882;7.718;2024-01-15T02:45:10;97647.91;;;2.77;65.21
83559;BME280;73527;47.882;7.718;2024-01-15T02:47:36;97651.84;;;2.65;65.33
83559;BME280;73527;47.882;7.718;2024-01-15T02:50:01;97635.09;;;3.06;64.83
83559;BME280;73527;47.882;7.718;2024-01-15T02:52:27;97642.53;;;2.52;65.84
83559;BME280;73527;47.882;7.718;2024-01-15T02:54:52;97633.00;;;2.68;65.65
83559;BME280;73527;47.882;7.718;2024-01-15T02:57:18;97638.47;;;2.06;67.12
83559;BME280;73527;47.882;7.718;2024-01-15T02:59:43;97639.25;;;2.25;66.53
83559;BME280;73527;47.882;7.718;2024-01-15T03:02:08;97638.50;;;2.40;66.72
83559;BME280;73527;47.882;7.718;2024-01-15T03:04:34;97634.78;;;3.09;63.46
83559;BME280;73527;47.882;7.718;2024-01-15T03:06:59;97620.59;;;2.60;65.58
83559;BME280;73527;47.882;7.718;2024-01-15T03:09:24;97636.75;;;2.23;65.62
83559;BME280;73527;47.882;7.718;2024-01-15T03:11:50;97629.03;;;2.63;64.25
83559;BME280;73527;47.882;7.718;2024-01-15T03:14:15;97632.06;;;2.43;64.66
83559;BME280;73527;47.882;7.718;2024-01-15T03:16:41;97622.78;;;2.73;64.02
83559;BME280;73527;47.882;7.718;2024-01-15T03:19:07;97610.72;;;2.78;63.86
83559;BME280;73527;47.882;7.718;2024-01-15T03:21:32;97618.25;;;2.57;64.23
83559;BME280;73527;47.882;7.718;2024-01-15T03:23:57;97610.00;;;2.52;64.20
83559;BME280;73527;47.882;7.718;2024-01-15T03:26:23;97613.34;;;2.70;63.91
83559;BME280;73527;47.882;7.718;2024-01-15T03:28:48;97607.47;;;3.08;62.54
83559;BME280;73527;47.882;7.718;2024-01-15T03:31:13;97610.66;;;3.20;61.75
83559;BME280;73527;47.882;7.718;2024-01-15T03:33:39;97613.94;;;3.06;62.48
83559;BME280;73527;47.882;7.718;2024-01-15T03:36:04;97611.63;;;3.03;62.23
83559;BME280;73527;47.882;7.718;2024-01-15T03:38:29;97617.44;;;3.47;62.08
83559;BME280;73527;47.882;7.718;2024-01-15T03:40:55;97607.16;;;3.03;62.45
83559;BME280;73527;47.882;7.718;2024-01-15T03:43:20;97617.25;;;3.24;62.50
83559;BME280;73527;47.882;7.718;2024-01-15T03:45:45;97619.88;;;3.00;62.88
83559;BME280;73527;47.882;7.718;2024-01-15T03:48:11;97618.41;;;3.22;62.65
83559;BME280;73527;47.882;7.718;2024-01-15T03:50:36;97623.72;;;3.38;61.73
83559;BME280;73527;47.882;7.718;2024-01-15T03:53:02;97619.44;;;3.37;61.87
83559;BME280;73527;47.882;7.718;2024-01-15T03:55:27;97616.78;;;3.29;62.56
83559;BME280;73527;47.882;7.718;2024-01-15T03:57:52;97615.47;;;2.67;64.15
83559;BME280;73527;47.882;7.718;2024-01-15T04:00:18;97613.09;;;2.97;63.56
83559;BME280;73527;47.882;7.718;2024-01-15T04:02:43;97617.53;;;2.81;63.73
83559;BME280;73527;47.882;7.718;2024-01-15T04:05:09;97620.16;;;2.89;63.54
83559;BME280;73527;47.882;7.718;2024-01-15T04:07:35;97580.34;;;2.98;62.48
83559;BME280;73527;47.882;7.718;2024-01-15T04:10:00;97610.78;;;3.02;63.10
83559;BME280;73527;47.882;7.718;2024-01-15T04:12:26;97599.56;;;3.49;62.25
83559;BME280;73527;47.882;7.718;2024-01-15T04:14:51;97589.78;;;3.01;62.61
83559;BME280;73527;47.882;7.718;2024-01-15T04:17:16;97588.63;;;3.03;63.33
83559;BME280;73527;47.882;7.718;2024-01-15T04:19:45;97595.34;;;2.82;64.05
83559;BME280;73527;47.882;7.718;2024-01-15T04:22:11;97594.09;;;3.26;62.93
83559;BME280;73527;47.882;7.718;2024-01-15T04:24:36;97594.63;;;3.46;61.86
83559;BME280;73527;47.882;7.718;2024-01-15T04:27:02;97583.34;;;3.36;61.58
83559;BME280;73527;47.882;7.718;2024-01-15T04:29:27;97586.50;;;3.47;62.29
83559;BME280;73527;47.882;7.718;2024-01-15T04:31:53;97581.03;;;3.33;62.03
83559;BME280;73527;47.882;7.718;2024-01-15T04:34:18;97588.75;;;3.91;59.68
83559;BME280;73527;47.882;7.718;2024-01-15T04:36:43;97581.88;;;3.33;61.58
83559;BME280;73527;47.882;7.718;2024-01-15T04:39:09;97588.78;;;3.66;61.22
83559;BME280;73527;47.882;7.718;2024-01-15T04:41:34;97591.78;;;3.47;61.33
83559;BME280;73527;47.882;7.718;2024-01-15T04:43:59;97584.91;;;4.09;60.16
83559;BME280;73527;47.882;7.718;2024-01-15T04:46:25;97597.06;;;3.88;60.81
83559;BME280;73527;47.882;7.718;2024-01-15T04:48:51;97594.41;;;3.88;60.47
83559;BME280;73527;47.882;7.718;2024-01-15T04:51:16;97600.88;;;3.61;61.20
83559;BME280;73527;47.882;7.718;2024-01-15T04:53:41;97590.41;;;4.47;59.44
83559;BME280;73527;47.882;7.718;2024-01-15T04:56:07;97598.56;;;4.37;59.70
83559;BME280;73527;47.882;7.718;2024-01-15T04:58:32;97600.66;;;4.58;59.16
83559;BME280;73527;47.882;7.718;2024-01-15T05:00:57;97614.59;;;3.97;61.79
83559;BME280;73527;47.882;7.718;2024-01-15T05:03:23;97619.72;;;3.90;62.07
83559;BME280;73527;47.882;7.718;2024-01-15T05:05:48;97613.72;;;4.20;61.38
83559;BME280;73527;47.882;7.718;2024-01-15T05:08:14;97620.91;;;3.39;63.21
83559;BME280;73527;47.882;7.718;2024-01-15T05:10:39;97623.56;;;3.47;63.95
83559;BME280;73527;47.882;7.718;2024-01-15T05:13:05;97630.69;;;3.55;63.67
83559;BME280;73527;47.882;7.718;2024-01-15T05:15:30;97633.31;;;3.31;64.33
83559;BME280;73527;47.882;7.718;2024-01-15T05:17:56;97630.38;;;3.50;63.50
83559;BME280;73527;47.882;7.718;2024-01-15T05:20:21;97621.41;;;3.75;63.50
83559;BME280;73527;47.882;7.718;2024-01-15T05:22:46;97616.47;;;3.40;63.88
83559;BME280;73527;47.882;7.718;2024-01-15T05:25:12;97628.88;;;3.55;63.36
83559;BME280;73527;47.882;7.718;2024-01-15T05:27:37;97631.03;;;2.70;66.42
83559;BME280;73527;47.882;7.718;2024-01-15T05:30:03;97622.53;;;3.00;65.58
83559;BME280;73527;47.882;7.718;2024-01-15T05:32:29;97641.72;;;2.26;68.57
83559;BME280;73527;47.882;7.718;2024-01-15T05:34:54;97612.94;;;3.15;65.39
83559;BME280;73527;47.882;7.718;2024-01-15T05:37:20;97632.25;;;2.41;67.85
83559;BME280;73527;47.882;7.718;2024-01-15T05:39:45;97624.63;;;2.88;66.75
83559;BME280;73527;47.882;7.718;2024-01-15T05:42:10;97621.59;;;2.25;68.27
83559;BME280;73527;47.882;7.718;2024-01-15T05:44:36;97597.13;;;2.65;67.86
83559;BME280;73527;47.882;7.718;2024-01-15T05:47:01;97603.88;;;2.59;67.99
83559;BME280;73527;47.882;7.718;2024-01-15T05:49:28;97608.50;;;2.57;67.59
83559;BME280;73527;47.882;7.718;2024-01-15T05:51:53;97602.00;;;2.44;67.91
83559;BME280;73527;47.882;7.718;2024-01-15T05:54:19;97601.56;;;2.56;67.41
83559;BME280;73527;47.882;7.718;2024-01-15T05:56:45;97607.97;;;2.96;66.28
83559;BME280;73527;47.882;7.718;2024-01-15T05:59:10;97598.03;;;2.98;66.33
83559;BME280;73527;47.882;7.718;2024-01-15T06:01:35;97605.94;;;2.82;66.56
83559;BME280;73527;47.882;7.718;2024-01-15T06:04:01;97610.81;;;3.10;65.94
83559;BME280;73527;47.882;7.718;2024-01-15T06:06:26;97618.22;;;2.49;67.95
83559;BME280;73527;47.882;7.718;2024-01-15T06:08:51;97613.06;;;2.05;69.55
83559;BME280;73527;47.882;7.718;2024-01-15T06:11:17;97599.13;;;2.29;68.50
83559;BME280;73527;47.882;7.718;2024-01-15T06:13:42;97597.63;;;2.60;68.53
83559;BME280;73527;47.882;7.718;2024-01-15T06:16:14;97591.19;;;2.29;68.03
83559;BME280;73527;47.882;7.718;2024-01-15T06:18:41;97596.91;;;2.50;68.37
83559;BME280;73527;47.882;7.718;2024-01-15T06:21:06;97589.44;;;2.88;66.93
83559;BME280;73527;47.882;7.718;2024-01-15T06:23:31;97594.38;;;2.83;66.98
83559;BME280;73527;47.882;7.718;2024-01-15T06:25:57;97598.88;;;3.06;65.78
83559;BME280;73527;47.882;7.718;2024-01-15T06:28:22;97598.22;;;2.38;67.48
83559;BME280;73527;47.882;7.718;2024-01-15T06:30:48;97589.31;;;2.55;67.37
83559;BME280;73527;47.882;7.718;2024-01-15T06:33:13;97583.00;;;2.90;66.31
83559;BME280;73527;47.882;7.718;2024-01-15T06:35:38;97594.78;;;3.20;65.32
83559;BME280;73527;47.882;7.718;2024-01-15T06:38:04;97597.41;;;3.60;63.82
83559;BME280;73527;47.882;7.718;2024-01-15T06:40:29;97578.22;;;3.42;64.43
83559;BME280;73527;47.882;7.718;2024-01-15T06:42:54;97601.53;;;3.47;64.43
83559;BME280;73527;47.882;7.718;2024-01-15T06:45:20;97605.03;;;3.47;65.01
83559;BME280;73527;47.882;7.718;2024-01-15T06:47:45;97591.56;;;4.05;62.75
83559;BME280;73527;47.882;7.718;2024-01-15T06:50:10;97600.91;;;3.21;64.78
83559;BME280;73527;47.882;7.718;2024-01-15T06:52:35;97596.56;;;3.28;65.21
83559;BME280;73527;47.882;7.718;2024-01-15T06:55:01;97590.72;;;2.76;66.82
83559;BME280;73527;47.882;7.718;2024-01-15T06:57:27;97591.06;;;2.89;66.49
83559;BME280;73527;47.882;7.718;2024-01-15T06:59:52;97590.19;;;2.64;66.91
83559;BME280;73527;47.882;7.718;2024-01-15T07:02:17;97579.19;;;3.09;66.05
83559;BME280;73527;47.882;7.718;2024-01-15T07:04:43;97575.72;;;2.92;65.74
83559;BME280;73527;47.882;7.718;2024-01-15T07:07:08;97570.22;;;2.70;67.86
83559;BME280;73527;47.882;7.718;2024-01-15T07:09:33;97570.25;;;2.28;68.01
83559;BME280;73527;47.882;7.718;2024-01-15T07:11:59;97565.34;;;2.41;68.41
83559;BME280;73527;47.882;7.718;2024-01-15T07:14:24;97553.41;;;2.37;67.53
83559;BME280;73527;47.882;7.718;2024-01-15T07:16:50;97560.59;;;2.60;67.23
83559;BME280;73527;47.882;7.718;2024-01-15T07:19:15;97562.28;;;2.70;66.74
83559;BME280;73527;47.882;7.718;2024-01-15T07:21:40;97562.78;;;2.73;65.72
83559;BME280;73527;47.882;7.718;2024-01-15T07:24:08;97565.13;;;2.84;65.83
83559;BME280;73527;47.882;7.718;2024-01-15T07:26:33;97568.94;;;3.06;64.67
83559;BME280;73527;47.882;7.718;2024-01-15T07:28:59;97564.78;;;2.95;64.22
83559;BME280;73527;47.882;7.718;2024-01-15T07:31:24;97520.50;;;3.13;62.72
83559;BME280;73527;47.882;7.718;2024-01-15T07:33:49;97566.31;;;3.06;62.66
83559;BME280;73527;47.882;7.718;2024-01-15T07:36:15;97544.78;;;3.57;61.11
83559;BME280;73527;47.882;7.718;2024-01-15T07:38:40;97530.91;;;3.31;60.44
83559;BME280;73527;47.882;7.718;2024-01-15T07:41:06;97527.25;;;3.56;61.01
83559;BME280;73527;47.882;7.718;2024-01-15T07:43:31;97532.72;;;3.63;61.05
83559;BME280;73527;47.882;7.718;2024-01-15T07:45:56;97548.47;;;3.40;61.28
83559;BME280;73527;47.882;7.718;2024-01-15T07:48:22;97546.41;;;3.83;59.97
83559;BME280;73527;47.882;7.718;2024-01-15T07:50:47;97540.16;;;3.51;58.97
83559;BME280;73527;47.882;7.718;2024-01-15T07:53:13;97546.06;;;3.86;59.17
83559;BME280;73527;47.882;7.718;2024-01-15T07:55:38;97554.53;;;3.57;60.64
83559;BME280;73527;47.882;7.718;2024-01-15T07:58:03;97561.00;;;3.38;61.25
83559;BME280;73527;47.882;7.718;2024-01-15T08:00:29;97562.66;;;3.55;61.52
83559;BME280;73527;47.882;7.718;2024-01-15T08:02:55;97575.22;;;2.97;63.62
83559;BME280;73527;47.882;7.718;2024-01-15T08:05:20;97564.47;;;2.98;64.12
83559;BME280;73527;47.882;7.718;2024-01-15T08:07:46;97561.50;;;3.42;63.07
83559;BME280;73527;47.882;7.718;2024-01-15T08:10:11;97563.97;;;2.95;64.74
83559;BME280;73527;47.882;7.718;2024-01-15T08:12:39;97564.47;;;2.98;64.75
83559;BME280;73527;47.882;7.718;2024-01-15T08:15:04;97569.44;;;3.17;63.97
83559;BME280;73527;47.882;7.718;2024-01-15T08:17:31;97557.06;;;3.26;64.48
83559;BME280;73527;47.882;7.718;2024-01-15T08:19:57;97575.03;;;2.82;65.83
83559;BME280;73527;47.882;7.718;2024-01-15T08:22:22;97548.41;;;2.92;65.42
83559;BME280;73527;47.882;7.718;2024-01-15T08:24:48;97566.63;;;3.11;65.87
83559;BME280;73527;47.882;7.718;2024-01-15T08:27:14;97563.94;;;2.79;66.71
83559;BME280;73527;47.882;7.718;2024-01-15T08:29:39;97565.28;;;2.99;66.52
83559;BME280;73527;47.882;7.718;2024-01-15T08:32:05;97566.28;;;3.54;64.61
83559;BME280;73527;47.882;7.718;2024-01-15T08:34:30;97564.97;;;3.02;65.65
83559;BME280;73527;47.882;7.718;2024-01-15T08:36:56;97553.72;;;2.92;65.93
83559;BME280;73527;47.882;7.718;2024-01-15T08:39:21;97540.66;;;2.98;66.05
83559;BME280;73527;47.882;7.718;2024-01-15T08:41:46;97540.50;;;3.08;65.35
83559;BME280;73527;47.882;7.718;2024-01-15T08:44:12;97542.34;;;3.40;64.42
83559;BME280;73527;47.882;7.718;2024-01-15T08:46:38;97534.38;;;3.48;64.21
83559;BME280;73527;47.882;7.718;2024-01-15T08:49:03;97554.00;;;3.78;63.50
83559;BME280;73527;47.882;7.718;2024-01-15T08:51:29;97536.69;;;4.06;63.18
83559;BME280;73527;47.882;7.718;2024-01-15T08:53:56;97533.91;;;3.36;64.15
83559;BME280;73527;47.882;7.718;2024-01-15T08:56:22;97525.31;;;3.10;64.02
83559;BME280;73527;47.882;7.718;2024-01-15T08:58:47;97538.66;;;3.41;63.73
83559;BME280;73527;47.882;7.718;2024-01-15T09:01:13;97543.81;;;3.26;63.90
83559;BME280;73527;47.882;7.718;2024-01-15T09:03:39;97545.31;;;3.29;63.85
83559;BME280;73527;47.882;7.718;2024-01-15T09:06:05;97549.94;;;3.10;64.53
83559;BME280;73527;47.882;7.718;2024-01-15T09:08:30;97540.34;;;3.34;63.48
83559;BME280;73527;47.882;7.718;2024-01-15T09:10:55;97528.94;;;3.25;63.60
83559;BME280;73527;47.882;7.718;2024-01-15T09:13:21;97525.97;;;3.20;63.42
83559;BME280;73527;47.882;7.718;2024-01-15T09:15:46;97525.13;;;3.20;63.30
83559;BME280;73527;47.882;7.718;2024-01-15T09:18:11;97520.16;;;3.33;63.11
83559;BME280;73527;47.882;7.718;2024-01-15T09:20:37;97511.22;;;3.26;63.33
83559;BME280;73527;47.882;7.718;2024-01-15T09:23:03;97486.25;;;3.28;62.28
83559;BME280;73527;47.882;7.718;2024-01-15T09:25:29;97489.06;;;3.19;63.00
83559;BME280;73527;47.882;7.718;2024-01-15T09:27:54;97489.88;;;3.35;61.58
83559;BME280;73527;47.882;7.718;2024-01-15T09:30:19;97496.81;;;3.52;60.91
83559;BME280;73527;47.882;7.718;2024-01-15T09:32:45;97484.88;;;3.56;59.83
83559;BME280;73527;47.882;7.718;2024-01-15T09:35:10;97504.47;;;3.86;59.03
83559;BME280;73527;47.882;7.718;2024-01-15T09:37:35;97498.34;;;3.94;59.23
83559;BME280;73527;47.882;7.718;2024-01-15T09:40:02;97491.75;;;3.82;59.81
83559;BME280;73527;47.882;7.718;2024-01-15T09:42:28;97494.16;;;3.99;58.83
83559;BME280;73527;47.882;7.718;2024-01-15T09:44:54;97488.16;;;4.13;57.74
83559;BME280;73527;47.882;7.718;2024-01-15T09:47:20;97501.06;;;3.70;58.92
83559;BME280;73527;47.882;7.718;2024-01-15T09:49:47;97478.09;;;4.01;59.51
83559;BME280;73527;47.882;7.718;2024-01-15T09:52:12;97495.38;;;4.28;59.39
83559;BME280;73527;47.882;7.718;2024-01-15T09:54:42;97495.09;;;3.76;60.03
83559;BME280;73527;47.882;7.718;2024-01-15T09:57:08;97489.75;;;3.92;59.40
83559;BME280;73527;47.882;7.718;2024-01-15T09:59:34;97492.00;;;4.03;59.18
83559;BME280;73527;47.882;7.718;2024-01-15T10:02:00;97487.84;;;4.08;59.65
83559;BME280;73527;47.882;7.718;2024-01-15T10:04:26;97489.59;;;3.85;60.10
83559;BME280;73527;47.882;7.718;2024-01-15T10:06:51;97484.03;;;4.03;59.29
83559;BME280;73527;47.882;7.718;2024-01-15T10:09:18;97486.03;;;4.40;58.75
83559;BME280;73527;47.882;7.718;2024-01-15T10:11:44;97495.94;;;4.15;59.49
83559;BME280;73527;47.882;7.718;2024-01-15T10:14:10;97506.28;;;4.02;60.44
83559;BME280;73527;47.882;7.718;2024-01-15T10:16:42;97491.25;;;4.25;59.70
83559;BME280;73527;47.882;7.718;2024-01-15T10:19:08;97490.72;;;3.91;60.27
83559;BME280;73527;47.882;7.718;2024-01-15T10:21:35;97487.63;;;4.49;58.87
83559;BME280;73527;47.882;7.718;2024-01-15T10:24:01;97485.69;;;4.12;60.59
83559;BME280;73527;47.882;7.718;2024-01-15T10:26:28;97485.97;;;3.78;60.54
83559;BME280;73527;47.882;7.718;2024-01-15T10:28:53;97482.63;;;3.84;61.17
83559;BME280;73527;47.882;7.718;2024-01-15T10:31:19;97493.16;;;4.39;59.66
83559;BME280;73527;47.882;7.718;2024-01-15T10:33:49;97495.94;;;4.15;59.92
83559;BME280;73527;47.882;7.718;2024-01-15T10:36:16;97475.50;;;4.32;59.32
83559;BME280;73527;47.882;7.718;2024-01-15T10:38:43;97488.94;;;4.53;59.32
83559;BME280;73527;47.882;7.718;2024-01-15T10:41:09;97497.97;;;4.66;59.59
83559;BME280;73527;47.882;7.718;2024-01-15T10:43:34;97482.69;;;4.46;58.48
83559;BME280;73527;47.882;7.718;2024-01-15T10:46:00;97500.84;;;4.26;60.29
83559;BME280;73527;47.882;7.718;2024-01-15T10:48:26;97493.00;;;5.32;57.17
83559;BME280;73527;47.882;7.718;2024-01-15T10:50:53;97503.69;;;4.78;58.76
83559;BME280;73527;47.882;7.718;2024-01-15T10:53:20;97513.28;;;4.26;60.29
83559;BME280;73527;47.882;7.718;2024-01-15T10:55:46;97503.91;;;4.15;60.31
83559;BME280;73527;47.882;7.718;2024-01-15T10:58:14;97516.47;;;4.21;61.35
83559;BME280;73527;47.882;7.718;2024-01-15T11:00:41;97515.34;;;4.07;60.80
83559;BME280;73527;47.882;7.718;2024-01-15T11:03:10;97519.09;;;4.21;60.29
83559;BME280;73527;47.882;7.718;2024-01-15T11:05:37;97521.91;;;4.19;61.33
83559;BME280;73527;47.882;7.718;2024-01-15T11:08:06;97521.34;;;4.40;60.30
83559;BME280;73527;47.882;7.718;2024-01-15T11:13:15;97534.41;;;4.03;62.42
83559;BME280;73527;47.882;7.718;2024-01-15T11:16:15;97530.38;;;3.68;63.46
83559;BME280;73527;47.882;7.718;2024-01-15T11:18:42;97520.81;;;3.43;64.80
83559;BME280;73527;47.882;7.718;2024-01-15T11:23:50;97513.75;;;4.29;63.68
83559;BME280;73527;47.882;7.718;2024-01-15T11:29:03;97534.53;;;4.17;62.27
83559;BME280;73527;47.882;7.718;2024-01-15T11:34:14;97530.50;;;3.83;64.65
83559;BME280;73527;47.882;7.718;2024-01-15T11:41:56;97515.13;;;3.78;64.56
83559;BME280;73527;47.882;7.718;2024-01-15T11:44:22;97511.03;;;3.51;64.21
83559;BME280;73527;47.882;7.718;2024-01-15T11:47:07;97535.88;;;3.42;65.48
83559;BME280;73527;47.882;7.718;2024-01-15T11:50:00;97536.84;;;3.65;65.21
83559;BME280;73527;47.882;7.718;2024-01-15T11:52:32;97529.19;;;3.79;64.16
83559;BME280;73527;47.882;7.718;2024-01-15T11:55:11;97538.06;;;3.94;64.25
83559;BME280;73527;47.882;7.718;2024-01-15T11:57:48;97529.88;;;3.64;64.42
83559;BME280;73527;47.882;7.718;2024-01-15T12:00:15;97526.34;;;3.88;63.52
83559;BME280;73527;47.882;7.718;2024-01-15T12:02:42;97520.94;;;3.57;64.28
83559;BME280;73527;47.882;7.718;2024-01-15T12:05:09;97522.13;;;3.63;63.51
83559;BME280;73527;47.882;7.718;2024-01-15T12:07:35;97507.63;;;3.90;63.19
83559;BME280;73527;47.882;7.718;2024-01-15T12:10:02;97513.09;;;3.88;63.25
83559;BME280;73527;47.882;7.718;2024-01-15T12:12:37;97521.88;;;3.89;62.52
83559;BME280;73527;47.882;7.718;2024-01-15T12:15:04;97510.88;;;4.08;62.57
83559;BME280;73527;47.882;7.718;2024-01-15T12:17:30;97499.78;;;4.04;62.69
83559;BME280;73527;47.882;7.718;2024-01-15T12:19:56;97467.16;;;3.65;62.88
83559;BME280;73527;47.882;7.718;2024-01-15T12:22:22;97461.72;;;3.97;63.22
83559;BME280;73527;47.882;7.718;2024-01-15T12:24:47;97463.78;;;4.18;61.91
83559;BME280;73527;47.882;7.718;2024-01-15T12:27:12;97455.38;;;4.06;62.09
83559;BME280;73527;47.882;7.718;2024-01-15T12:29:38;97445.00;;;3.97;62.30
83559;BME280;73527;47.882;7.718;2024-01-15T12:32:05;97458.44;;;3.95;62.28
83559;BME280;73527;47.882;7.718;2024-01-15T12:34:31;97446.88;;;3.88;63.42
83559;BME280;73527;47.882;7.718;2024-01-15T12:36:58;97440.66;;;4.04;62.38
83559;BME280;73527;47.882;7.718;2024-01-15T12:39:24;97445.88;;;4.20;61.65
83559;BME280;73527;47.882;7.718;2024-01-15T12:41:50;97435.72;;;3.62;62.51
83559;BME280;73527;47.882;7.718;2024-01-15T12:44:16;97443.38;;;3.96;61.78
83559;BME280;73527;47.882;7.718;2024-01-15T12:46:41;97451.88;;;4.14;61.28
83559;BME280;73527;47.882;7.718;2024-01-15T12:49:07;97465.59;;;4.48;60.24
83559;BME280;73527;47.882;7.718;2024-01-15T12:51:34;97474.75;;;4.15;61.37
83559;BME280;73527;47.882;7.718;2024-01-15T12:53:59;97475.25;;;4.41;61.14
83559;BME280;73527;47.882;7.718;2024-01-15T12:56:25;97477.31;;;4.31;60.75
83559;BME280;73527;47.882;7.718;2024-01-15T12:58:50;97490.19;;;4.03;61.65
83559;BME280;73527;47.882;7.718;2024-01-15T13:01:15;97476.84;;;4.19;61.26
83559;BME280;73527;47.882;7.718;2024-01-15T13:03:41;97490.66;;;4.15;nan
83559;BME280;73527;47.882;7.718;2024-01-15T13:06:06;97490.41;;;4.55;61.21
83559;BME280;73527;47.882;7.718;2024-01-15T13:08:32;97503.13;;;3.98;62.96
83559;BME280;73527;47.882;7.718;2024-01-15T13:10:57;97504.19;;;4.20;61.31
83559;BME280;73527;47.882;7.718;2024-01-15T13:13:23;97508.38;;;3.59;63.24
83559;BME280;73527;47.882;7.718;2024-01-15T13:15:48;97500.28;;;4.00;63.00
83559;BME280;73527;47.882;7.718;2024-01-15T13:18:14;97498.50;;;4.31;61.90
83559;BME280;73527;47.882;7.718;2024-01-15T13:20:39;97509.91;;;4.01;63.36